createdAt,value
2022-12-09T00:02:06.308Z,7.43
2022-12-09T00:04:34.082Z,7.18
2022-12-09T00:07:01.316Z,6.63
2022-12-09T00:09:28.362Z,7.18
2022-12-09T00:11:55.385Z,7.15
2022-12-09T00:14:22.233Z,6.30
2022-12-09T00:16:49.122Z,8.10
2022-12-09T00:19:16.064Z,6.82
2022-12-09T00:21:42.909Z,7.20
2022-12-09T00:24:12.043Z,6.90
2022-12-09T00:26:39.455Z,6.80
2022-12-09T00:29:06.801Z,7.75
2022-12-09T00:31:35.950Z,7.25
2022-12-09T00:34:05.204Z,7.40
2022-12-09T00:36:32.879Z,7.07
2022-12-09T00:39:00.024Z,8.05
2022-12-09T00:41:27.495Z,7.00
2022-12-09T00:43:54.933Z,7.13
2022-12-09T00:46:22.369Z,6.93
2022-12-09T00:48:49.388Z,7.22
2022-12-09T00:51:19.572Z,8.45
2022-12-09T00:53:46.840Z,7.55
2022-12-09T00:56:14.014Z,8.25
2022-12-09T00:58:40.902Z,7.63
2022-12-09T01:01:07.871Z,7.43
2022-12-09T01:03:35.241Z,7.45
2022-12-09T01:06:07.279Z,7.60
2022-12-09T01:08:38.343Z,8.02
2022-12-09T01:11:10.866Z,7.85
2022-12-09T01:13:38.452Z,7.22
2022-12-09T01:16:13.325Z,7.75
2022-12-09T01:18:40.268Z,7.32
2022-12-09T01:21:06.981Z,7.38
2022-12-09T01:23:34.625Z,7.70
2022-12-09T01:26:03.717Z,7.35
2022-12-09T01:28:30.755Z,8.45
2022-12-09T01:30:57.734Z,7.55
2022-12-09T01:33:24.792Z,7.53
2022-12-09T01:35:51.485Z,6.70
2022-12-09T01:38:18.218Z,8.20
2022-12-09T01:40:46.507Z,7.05
2022-12-09T01:43:20.317Z,6.93
2022-12-09T01:45:47.259Z,7.05
2022-12-09T01:48:17.052Z,7.65
2022-12-09T01:50:49.052Z,6.63
2022-12-09T01:53:18.487Z,6.85
2022-12-09T01:55:46.419Z,7.45
2022-12-09T01:58:14.974Z,7.13
2022-12-09T02:00:42.860Z,6.97
2022-12-09T02:03:10.001Z,7.00
2022-12-09T02:05:37.889Z,7.00
2022-12-09T02:08:14.314Z,7.05
2022-12-09T02:11:00.274Z,6.55
2022-12-09T02:13:54.258Z,6.78
2022-12-09T02:16:25.043Z,6.75
2022-12-09T02:19:00.280Z,7.28
2022-12-09T02:21:31.275Z,6.70
2022-12-09T02:24:15.977Z,7.03
2022-12-09T02:26:51.383Z,6.93
2022-12-09T02:29:54.641Z,6.85
2022-12-09T02:32:40.185Z,6.80
2022-12-09T02:35:12.056Z,6.28
2022-12-09T02:37:43.928Z,6.63
2022-12-09T02:40:30.204Z,7.15
2022-12-09T02:42:59.571Z,6.55
2022-12-09T02:45:31.090Z,5.82
2022-12-09T02:48:00.407Z,5.68
2022-12-09T02:50:32.271Z,5.90
2022-12-09T02:53:02.066Z,6.50
2022-12-09T02:55:30.429Z,6.20
2022-12-09T02:58:00.669Z,5.95
2022-12-09T03:00:27.888Z,6.00
2022-12-09T03:03:01.865Z,5.85
2022-12-09T03:05:34.519Z,6.43
2022-12-09T03:08:38.372Z,6.00
2022-12-09T03:11:15.908Z,5.72
2022-12-09T03:13:54.606Z,5.95
2022-12-09T03:16:47.274Z,5.78
2022-12-09T03:19:24.232Z,6.57
2022-12-09T03:21:56.609Z,5.40
2022-12-09T03:24:33.284Z,5.68
2022-12-09T03:27:04.776Z,5.70
2022-12-09T03:29:34.591Z,5.45
2022-12-09T03:32:01.520Z,5.15
2022-12-09T03:34:35.750Z,5.72
2022-12-09T03:37:05.992Z,5.88
2022-12-09T03:39:37.003Z,5.45
2022-12-09T03:42:14.686Z,6.10
2022-12-09T03:45:06.113Z,4.80
2022-12-09T03:47:33.369Z,6.13
2022-12-09T03:50:00.542Z,5.60
2022-12-09T03:52:53.439Z,5.70
2022-12-09T03:55:38.917Z,5.60
2022-12-09T03:58:07.256Z,5.85
2022-12-09T04:00:37.510Z,5.22
2022-12-09T04:03:06.443Z,5.63
2022-12-09T04:05:33.845Z,7.07
2022-12-09T04:08:00.781Z,6.65
2022-12-09T04:10:27.726Z,7.10
2022-12-09T04:12:54.561Z,6.22
2022-12-09T04:15:21.469Z,6.93
2022-12-09T04:17:48.428Z,7.30
2022-12-09T04:20:15.592Z,6.75
2022-12-09T04:22:42.710Z,6.80
2022-12-09T04:25:10.316Z,6.68
2022-12-09T04:27:37.551Z,7.15
2022-12-09T04:30:05.733Z,6.68
2022-12-09T04:32:32.920Z,6.55
2022-12-09T04:35:00.806Z,6.85
2022-12-09T04:37:27.625Z,6.75
2022-12-09T04:39:54.291Z,6.50
2022-12-09T04:42:21.109Z,6.35
2022-12-09T04:44:48.115Z,6.30
2022-12-09T04:47:14.937Z,6.70
2022-12-09T04:49:42.084Z,6.97
2022-12-09T04:52:09.255Z,6.53
2022-12-09T04:54:36.058Z,6.50
2022-12-09T04:57:03.105Z,7.20
2022-12-09T04:59:31.662Z,6.70
2022-12-09T05:01:58.693Z,6.50
2022-12-09T05:04:25.645Z,6.75
2022-12-09T05:06:52.755Z,6.32
2022-12-09T05:09:19.785Z,7.57
2022-12-09T05:11:46.881Z,6.88
2022-12-09T05:14:14.329Z,6.90
2022-12-09T05:16:41.955Z,6.95
2022-12-09T05:19:09.599Z,7.82
2022-12-09T05:21:36.399Z,7.05
2022-12-09T05:24:03.805Z,7.47
2022-12-09T05:26:30.661Z,8.18
2022-12-09T05:28:57.431Z,7.80
2022-12-09T05:31:24.490Z,8.88
2022-12-09T05:33:52.447Z,8.73
2022-12-09T05:36:25.319Z,9.90
2022-12-09T05:38:52.644Z,10.57
2022-12-09T05:41:19.870Z,10.48
2022-12-09T05:43:47.151Z,9.73
2022-12-09T05:46:14.944Z,11.13
2022-12-09T05:48:41.893Z,12.48
2022-12-09T05:51:23.820Z,10.85
2022-12-09T05:53:51.082Z,12.48
2022-12-09T05:56:19.609Z,11.77
2022-12-09T05:58:47.454Z,12.50
2022-12-09T06:01:14.952Z,12.73
2022-12-09T06:03:42.174Z,12.27
2022-12-09T06:06:14.207Z,13.85
2022-12-09T06:08:43.802Z,14.10
2022-12-09T06:11:21.007Z,13.30
2022-12-09T06:13:49.051Z,14.15
2022-12-09T06:16:17.547Z,13.95
2022-12-09T06:18:45.180Z,14.20
2022-12-09T06:21:14.682Z,14.25
2022-12-09T06:23:42.918Z,14.27
2022-12-09T06:26:20.907Z,14.85
2022-12-09T06:28:48.126Z,15.05
2022-12-09T06:31:15.532Z,14.30
2022-12-09T06:33:59.121Z,14.60
2022-12-09T06:36:29.465Z,13.52
2022-12-09T06:39:05.921Z,13.40
2022-12-09T06:41:36.585Z,14.75
2022-12-09T06:44:04.186Z,13.75
2022-12-09T06:46:31.340Z,13.70
2022-12-09T06:48:58.491Z,14.75
2022-12-09T06:51:26.199Z,13.30
2022-12-09T06:53:53.564Z,13.73
2022-12-09T06:56:21.087Z,13.75
2022-12-09T06:58:48.249Z,14.23
2022-12-09T07:01:21.915Z,13.63
2022-12-09T07:03:51.561Z,13.15
2022-12-09T07:06:34.533Z,14.05
2022-12-09T07:09:07.330Z,13.88
2022-12-09T07:11:35.130Z,13.10
2022-12-09T07:14:02.876Z,12.82
2022-12-09T07:16:30.613Z,14.80
2022-12-09T07:18:58.298Z,13.48
2022-12-09T07:21:25.585Z,13.75
2022-12-09T07:23:52.793Z,13.70
2022-12-09T07:26:20.733Z,13.73
2022-12-09T07:28:48.294Z,13.10
2022-12-09T07:31:26.561Z,13.35
2022-12-09T07:33:55.393Z,13.65
2022-12-09T07:36:25.118Z,12.65
2022-12-09T07:39:00.383Z,12.57
2022-12-09T07:41:28.182Z,13.93
2022-12-09T07:43:55.897Z,12.60
2022-12-09T07:46:24.332Z,13.18
2022-12-09T07:48:51.341Z,13.82
2022-12-09T07:51:18.578Z,13.27
2022-12-09T07:53:46.870Z,13.38
2022-12-09T07:56:15.133Z,13.48
2022-12-09T07:58:43.903Z,12.95
2022-12-09T08:01:19.674Z,13.27
2022-12-09T08:03:47.829Z,12.80
2022-12-09T08:06:17.529Z,14.07
2022-12-09T08:08:45.684Z,13.33
2022-12-09T08:11:24.415Z,13.60
2022-12-09T08:13:51.844Z,14.02
2022-12-09T08:16:21.637Z,14.25
2022-12-09T08:18:49.739Z,14.63
2022-12-09T08:21:19.872Z,14.82
2022-12-09T08:23:50.829Z,15.23
2022-12-09T08:26:20.662Z,13.65
2022-12-09T08:28:48.661Z,14.80
2022-12-09T08:31:18.608Z,15.45
2022-12-09T08:33:45.857Z,14.75
2022-12-09T08:36:23.134Z,13.80
2022-12-09T08:38:50.341Z,14.70
2022-12-09T08:41:24.476Z,14.85
2022-12-09T08:43:51.315Z,14.32
2022-12-09T08:46:18.128Z,13.82
2022-12-09T08:48:45.751Z,14.00
2022-12-09T08:51:12.705Z,13.88
2022-12-09T08:53:40.050Z,14.43
2022-12-09T08:56:12.229Z,14.20
2022-12-09T08:58:41.147Z,13.40
2022-12-09T09:01:14.660Z,14.00
2022-12-09T09:03:41.817Z,13.88
2022-12-09T09:06:10.868Z,12.30
2022-12-09T09:08:39.455Z,13.52
2022-12-09T09:11:15.967Z,13.52
2022-12-09T09:13:44.516Z,12.93
2022-12-09T09:16:17.450Z,14.40
2022-12-09T09:18:45.097Z,13.82
2022-12-09T09:21:14.818Z,13.05
2022-12-09T09:23:42.796Z,13.27
2022-12-09T09:26:11.746Z,13.10
2022-12-09T09:28:39.283Z,13.40
2022-12-09T09:31:08.639Z,12.93
2022-12-09T09:33:35.761Z,13.68
2022-12-09T09:36:09.877Z,12.95
2022-12-09T09:38:37.615Z,12.48
2022-12-09T09:41:19.490Z,12.52
2022-12-09T09:43:47.143Z,13.32
2022-12-09T09:46:39.846Z,11.98
2022-12-09T09:49:12.499Z,13.30
2022-12-09T09:51:40.069Z,12.85
2022-12-09T09:54:12.637Z,12.07
2022-12-09T09:56:46.077Z,12.88
2022-12-09T09:59:30.147Z,12.50
2022-12-09T10:02:12.606Z,11.32
2022-12-09T10:04:54.506Z,11.95
2022-12-09T10:07:52.639Z,13.27
2022-12-09T10:10:49.269Z,11.60
2022-12-09T10:13:40.580Z,11.43
2022-12-09T10:16:44.743Z,11.90
2022-12-09T10:19:21.584Z,12.38
2022-12-09T10:21:51.391Z,11.43
2022-12-09T10:24:40.905Z,12.50
2022-12-09T10:27:19.281Z,12.18
2022-12-09T10:29:56.791Z,12.40
2022-12-09T10:32:33.450Z,12.30
2022-12-09T10:35:01.437Z,11.23
2022-12-09T10:37:34.551Z,10.88
2022-12-09T10:40:07.904Z,12.43
2022-12-09T10:42:41.144Z,10.00
2022-12-09T10:45:08.710Z,11.95
2022-12-09T10:47:35.756Z,12.48
2022-12-09T10:50:03.204Z,12.32
2022-12-09T10:52:40.575Z,12.27
2022-12-09T10:55:20.904Z,12.10
2022-12-09T10:57:47.886Z,12.25
2022-12-09T11:00:29.658Z,12.95
2022-12-09T11:02:59.982Z,12.70
2022-12-09T11:05:31.900Z,12.60
2022-12-09T11:07:59.632Z,13.38
2022-12-09T11:10:29.583Z,11.65
2022-12-09T11:13:15.275Z,13.65
2022-12-09T11:15:50.412Z,13.40
2022-12-09T11:18:30.133Z,13.93
2022-12-09T11:21:08.853Z,13.73
2022-12-09T11:23:36.235Z,14.80
2022-12-09T11:26:22.388Z,14.32
2022-12-09T11:29:19.534Z,14.07
2022-12-09T11:31:47.398Z,13.98
2022-12-09T11:34:24.384Z,13.80
2022-12-09T11:36:54.631Z,14.18
2022-12-09T11:39:32.807Z,13.85
2022-12-09T11:42:20.179Z,14.02
2022-12-09T11:44:56.116Z,13.30
2022-12-09T11:48:12.860Z,13.32
2022-12-09T11:50:29.727Z,13.93
2022-12-09T11:53:11.800Z,13.60
2022-12-09T11:55:59.141Z,13.30
2022-12-09T11:58:42.761Z,14.15
2022-12-09T12:01:29.205Z,13.20
2022-12-09T12:04:00.750Z,12.75
2022-12-09T12:06:58.969Z,14.07
2022-12-09T12:09:43.913Z,13.88
2022-12-09T12:12:26.609Z,14.27
2022-12-09T12:14:58.434Z,12.98
2022-12-09T12:17:34.713Z,13.50
2022-12-09T12:20:06.736Z,12.57
2022-12-09T12:22:55.394Z,12.82
2022-12-09T12:25:26.699Z,12.35
2022-12-09T12:28:03.390Z,12.48
2022-12-09T12:30:45.646Z,13.30
2022-12-09T12:37:21.175Z,12.57
2022-12-09T12:39:53.121Z,13.48
2022-12-09T12:42:40.016Z,13.52
2022-12-09T12:45:23.871Z,12.40
2022-12-09T12:48:21.560Z,12.20
2022-12-09T12:50:58.564Z,12.13
2022-12-09T12:53:33.408Z,12.20
2022-12-09T12:56:09.084Z,12.23
2022-12-09T12:58:54.912Z,13.10
2022-12-09T13:01:35.011Z,11.45
2022-12-09T13:04:33.025Z,12.10
2022-12-09T13:07:18.775Z,12.18
2022-12-09T13:10:08.734Z,11.60
2022-12-09T13:12:41.425Z,11.85
2022-12-09T13:15:19.519Z,11.65
2022-12-09T13:17:49.481Z,10.82
2022-12-09T13:20:44.494Z,10.10
2022-12-09T13:23:48.551Z,11.43
2022-12-09T13:26:39.979Z,11.32
2022-12-09T13:29:18.062Z,11.63
2022-12-09T13:32:04.841Z,11.00
2022-12-09T13:34:44.695Z,11.13
2022-12-09T13:37:44.595Z,11.98
2022-12-09T13:40:22.498Z,11.23
2022-12-09T13:43:03.086Z,11.10
2022-12-09T13:45:37.199Z,10.88
2022-12-09T13:48:31.333Z,11.07
2022-12-09T13:51:01.065Z,11.02
2022-12-09T13:53:45.788Z,10.97
2022-12-09T13:56:28.814Z,10.63
2022-12-09T13:59:32.706Z,10.35
2022-12-09T14:02:40.352Z,11.40
2022-12-09T14:05:14.260Z,10.85
2022-12-09T14:08:04.692Z,11.15
2022-12-09T14:13:29.072Z,10.23
2022-12-09T14:16:17.459Z,10.25
2022-12-09T14:18:46.529Z,10.68
2022-12-09T14:21:19.883Z,10.48
2022-12-09T14:24:09.424Z,10.25
2022-12-09T14:26:58.273Z,11.30
2022-12-09T14:29:48.583Z,10.68
2022-12-09T14:32:52.178Z,10.52
2022-12-09T14:35:47.476Z,11.18
2022-12-09T14:38:29.657Z,10.70
2022-12-09T14:41:13.164Z,10.43
2022-12-09T14:43:56.123Z,9.85
2022-12-09T14:46:30.933Z,10.52
2022-12-09T14:49:19.620Z,9.77
2022-12-09T14:51:56.365Z,10.23
2022-12-09T14:54:35.191Z,10.30
2022-12-09T14:57:05.748Z,10.23
2022-12-09T14:59:33.171Z,10.02
2022-12-09T15:02:21.291Z,9.45
2022-12-09T15:04:50.068Z,9.68
2022-12-09T15:07:18.888Z,9.57
2022-12-09T15:09:51.724Z,10.73
2022-12-09T15:12:21.548Z,9.93
2022-12-09T15:14:54.671Z,10.15
2022-12-09T15:17:32.690Z,10.23
2022-12-09T15:20:01.022Z,10.23
2022-12-09T15:22:30.762Z,11.15
2022-12-09T15:24:57.907Z,10.05
2022-12-09T15:27:27.349Z,10.55
2022-12-09T15:29:54.884Z,9.50
2022-12-09T15:32:28.469Z,9.30
2022-12-09T15:34:55.304Z,9.48
2022-12-09T15:37:28.394Z,10.32
2022-12-09T15:40:07.502Z,10.07
2022-12-09T15:42:38.048Z,10.38
2022-12-09T15:45:12.960Z,10.32
2022-12-09T15:47:56.273Z,10.20
2022-12-09T15:50:36.298Z,9.55
2022-12-09T15:53:44.129Z,10.70
2022-12-09T15:56:26.423Z,10.95
2022-12-09T15:58:58.015Z,10.23
2022-12-09T16:01:28.692Z,10.32
2022-12-09T16:03:58.296Z,10.23
2022-12-09T16:06:28.946Z,9.15
2022-12-09T16:11:46.916Z,10.38
2022-12-09T16:17:01.787Z,10.07
2022-12-09T16:19:36.250Z,10.73
2022-12-09T16:22:17.283Z,10.18
2022-12-09T16:25:13.532Z,10.50
2022-12-09T16:27:47.615Z,9.32
2022-12-09T16:30:24.362Z,10.40
2022-12-09T16:33:00.547Z,10.52
2022-12-09T16:35:41.911Z,10.35
2022-12-09T16:38:10.334Z,10.10
2022-12-09T16:40:48.016Z,10.50
2022-12-09T16:43:18.600Z,10.55
2022-12-09T16:45:48.224Z,10.35
2022-12-09T16:48:17.825Z,10.47
2022-12-09T16:50:54.598Z,10.40
2022-12-09T16:53:36.174Z,10.35
2022-12-09T16:56:05.662Z,10.77
2022-12-09T16:58:35.964Z,10.88
2022-12-09T17:01:05.386Z,10.73
2022-12-09T17:03:41.854Z,10.95
2022-12-09T17:06:15.910Z,10.15
2022-12-09T17:08:43.360Z,11.60
2022-12-09T17:11:10.934Z,11.07
2022-12-09T17:13:38.963Z,11.05
2022-12-09T17:16:06.897Z,11.35
2022-12-09T17:18:34.573Z,10.75
2022-12-09T17:21:08.759Z,9.25
2022-12-09T17:23:40.079Z,11.10
2022-12-09T17:26:11.798Z,10.25
2022-12-09T17:28:40.871Z,10.63
2022-12-09T17:31:14.850Z,10.07
2022-12-09T17:33:43.313Z,11.10
2022-12-09T17:36:12.214Z,11.48
2022-12-09T17:38:40.286Z,11.15
2022-12-09T17:41:15.218Z,11.00
2022-12-09T17:43:43.903Z,11.35
2022-12-09T17:46:13.221Z,10.48
2022-12-09T17:48:41.578Z,10.95
2022-12-09T17:51:10.493Z,11.00
2022-12-09T17:53:41.596Z,10.30
2022-12-09T17:56:14.160Z,11.05
2022-12-09T17:58:41.743Z,11.23
2022-12-09T18:01:15.595Z,11.02
2022-12-09T18:04:00.453Z,10.10
2022-12-09T18:06:30.932Z,10.77
2022-12-09T18:08:57.782Z,10.05
2022-12-09T18:11:24.534Z,10.45
2022-12-09T18:13:51.390Z,10.48
2022-12-09T18:16:19.069Z,11.13
2022-12-09T18:18:46.377Z,10.13
2022-12-09T18:21:16.012Z,10.27
2022-12-09T18:23:44.031Z,11.18
2022-12-09T18:26:13.865Z,10.30
2022-12-09T18:28:40.950Z,11.10
2022-12-09T18:31:16.691Z,10.70
2022-12-09T18:33:44.676Z,10.30
2022-12-09T18:36:15.059Z,9.52
2022-12-09T18:38:44.206Z,11.13
2022-12-09T18:41:17.587Z,10.05
2022-12-09T18:43:48.279Z,9.10
2022-12-09T18:46:30.935Z,9.38
2022-12-09T18:49:06.398Z,8.70
2022-12-09T18:51:35.434Z,8.60
2022-12-09T18:54:04.210Z,9.27
2022-12-09T18:56:33.439Z,9.07
2022-12-09T18:59:07.158Z,9.27
2022-12-09T19:01:36.725Z,9.02
2022-12-09T19:04:04.604Z,10.15
2022-12-09T19:06:40.235Z,9.07
2022-12-09T19:09:10.515Z,8.80
2022-12-09T19:11:39.360Z,8.95
2022-12-09T19:14:09.353Z,9.35
2022-12-09T19:16:38.604Z,9.00
2022-12-09T19:19:10.124Z,8.98
2022-12-09T19:21:37.495Z,9.35
2022-12-09T19:24:04.784Z,9.57
2022-12-09T19:26:33.516Z,9.70
2022-12-09T19:29:06.738Z,10.07
2022-12-09T19:31:39.011Z,9.75
2022-12-09T19:34:13.953Z,8.73
2022-12-09T19:36:41.432Z,9.52
2022-12-09T19:39:09.465Z,9.50
2022-12-09T19:41:37.456Z,10.00
2022-12-09T19:44:05.064Z,10.43
2022-12-09T19:46:32.866Z,10.70
2022-12-09T19:49:00.351Z,10.55
2022-12-09T19:51:27.802Z,11.27
2022-12-09T19:53:57.013Z,10.95
2022-12-09T19:56:24.725Z,10.20
2022-12-09T19:58:52.219Z,9.82
2022-12-09T20:01:24.314Z,10.68
2022-12-09T20:03:55.799Z,10.60
2022-12-09T20:06:22.500Z,10.82
2022-12-09T20:08:49.601Z,9.73
2022-12-09T20:11:19.959Z,10.02
2022-12-09T20:13:47.307Z,9.80
2022-12-09T20:16:17.364Z,10.65
2022-12-09T20:18:44.200Z,10.15
2022-12-09T20:21:13.000Z,10.45
2022-12-09T20:23:41.538Z,10.32
2022-12-09T20:26:14.249Z,10.10
2022-12-09T20:28:43.054Z,9.82
2022-12-09T20:31:15.142Z,10.93
2022-12-09T20:33:42.515Z,11.57
2022-12-09T20:36:11.802Z,11.10
2022-12-09T20:38:39.344Z,12.10
2022-12-09T20:41:08.548Z,11.63
2022-12-09T20:43:36.144Z,11.98
2022-12-09T20:46:05.802Z,11.43
2022-12-09T20:48:36.704Z,12.13
2022-12-09T20:51:26.613Z,11.60
2022-12-09T20:53:55.094Z,10.67
2022-12-09T20:56:24.214Z,12.05
2022-12-09T20:58:52.596Z,12.20
2022-12-09T21:01:21.963Z,12.60
2022-12-09T21:03:50.255Z,12.70
2022-12-09T21:06:18.956Z,12.40
2022-12-09T21:08:45.729Z,11.93
2022-12-09T21:11:21.506Z,13.40
2022-12-09T21:13:50.438Z,13.02
2022-12-09T21:16:22.471Z,12.88
2022-12-09T21:18:50.917Z,12.07
2022-12-09T21:21:19.370Z,12.90
2022-12-09T21:23:46.901Z,12.85
2022-12-09T21:26:16.139Z,13.48
2022-12-09T21:28:44.672Z,13.63
2022-12-09T21:31:15.296Z,13.48
2022-12-09T21:33:43.787Z,13.52
2022-12-09T21:36:14.583Z,13.95
2022-12-09T21:38:41.828Z,14.30
2022-12-09T21:41:11.787Z,12.93
2022-12-09T21:43:38.866Z,14.30
2022-12-09T21:46:08.727Z,14.00
2022-12-09T21:48:36.125Z,13.93
2022-12-09T21:51:03.405Z,13.07
2022-12-09T21:53:30.879Z,14.68
2022-12-09T21:56:16.711Z,13.48
2022-12-09T21:58:45.099Z,14.73
2022-12-09T22:01:17.508Z,13.65
2022-12-09T22:03:45.591Z,14.27
2022-12-09T22:06:13.358Z,14.02
2022-12-09T22:08:41.596Z,14.38
2022-12-09T22:11:09.943Z,13.65
2022-12-09T22:13:39.773Z,13.77
2022-12-09T22:16:15.895Z,13.88
2022-12-09T22:18:43.702Z,14.18
2022-12-09T22:21:24.721Z,13.77
2022-12-09T22:23:58.688Z,13.98
2022-12-09T22:26:26.491Z,13.45
2022-12-09T22:28:54.055Z,12.98
2022-12-09T22:31:23.865Z,13.00
2022-12-09T22:33:53.056Z,12.60
2022-12-09T22:36:20.792Z,12.40
2022-12-09T22:38:48.409Z,12.43
2022-12-09T22:41:20.889Z,13.15
2022-12-09T22:43:49.012Z,13.00
2022-12-09T22:46:18.842Z,12.45
2022-12-09T22:48:45.751Z,12.05
2022-12-09T22:51:17.892Z,12.05
2022-12-09T22:53:45.428Z,12.35
2022-12-09T22:56:12.543Z,12.32
2022-12-09T22:58:39.851Z,10.65
2022-12-09T23:01:12.044Z,11.35
2022-12-09T23:03:39.460Z,11.43
2022-12-09T23:06:07.156Z,10.85
2022-12-09T23:08:34.055Z,11.35
2022-12-09T23:11:05.810Z,10.95
2022-12-09T23:13:36.241Z,10.70
2022-12-09T23:16:07.984Z,10.73
2022-12-09T23:18:35.417Z,10.38
2022-12-09T23:21:04.798Z,10.88
2022-12-09T23:23:32.498Z,9.77
2022-12-09T23:26:08.379Z,9.93
2022-12-09T23:28:43.636Z,10.27
2022-12-09T23:31:12.882Z,10.20
2022-12-09T23:33:41.842Z,10.88
2022-12-09T23:36:12.159Z,9.73
2022-12-09T23:38:39.677Z,10.05
2022-12-09T23:41:06.441Z,10.45
2022-12-09T23:43:38.132Z,8.90
2022-12-09T23:46:15.306Z,10.15
2022-12-09T23:48:46.519Z,10.70
2022-12-09T23:53:41.354Z,10.40
2022-12-09T23:56:11.684Z,10.25
2022-12-09T23:58:39.169Z,9.40
